KRKR/RKR METAR and TAF weather

Enter ICAO airport designator
Station Type Date Time Source
KRKR METAR 2022/11/26 09:15 UTC NOAA

KRKR 260915Z AUTO 00000KT 10SM OVC025 08/07 A3009 RMK AO2


Station Type Date Time Source
KRKR Decoded METAR 2022/11/26 09:15 UTC NOAA

Poteau, Robert S Kerr Airport, OK, United States (KRKR) 35-01-18N 094-37-17W
Nov 26, 2022 - 04:15 AM EST / 2022.11.26 0915 UTC
Wind: Calm:0
Visibility: 10 mile(s):0
Sky conditions: overcast
Temperature: 46 F (8 C)
Dew Point: 44 F (7 C)
Relative Humidity: 93%
Pressure (altimeter): 30.09 in. Hg (1018 hPa)
ob: KRKR 260915Z AUTO 00000KT 10SM OVC025 08/07 A3009 RMK AO2
cycle: 9

Station Type Date Time Source
KRKR TAF UTC NOAA

Error!

Example: see airport list